Time;durP1;ratioP1;P1;durP2;ratioP2;P2;SDS_P1;SDS_P2;PMS_P1;PMS_P2;Temp;Humidity;BMP_temperature;BMP_pressure;BME280_temperature;BME280_humidity;BME280_pressure;Samples;Min_cycle;Max_cycle;Signal;HPM_P1;HPM_P2
2022/07/09 00:00:13;;;;;;;1.30;1.20;;;;;;;;;;5100424;28;20235;-59
2022/07/09 00:02:41;;;;;;;1.85;1.30;;;;;;;;;;5100578;28;20470;-58
2022/07/09 00:05:09;;;;;;;1.63;1.25;;;;;;;;;;5101171;28;20250;-58
2022/07/09 00:07:39;;;;;;;2.03;1.30;;;;;;;;;;5100915;28;20240;-60
2022/07/09 00:10:07;;;;;;;1.50;1.25;;;;;;;;;;5100510;28;20211;-60
2022/07/09 00:12:36;;;;;;;2.50;1.33;;;;;;;;;;5100839;28;20224;-60
2022/07/09 00:15:03;;;;;;;1.98;1.55;;;;;;;;;;5100525;28;20207;-60
2022/07/09 00:17:31;;;;;;;1.15;1.10;;;;;;;;;;5100942;28;20290;-59
2022/07/09 00:19:58;;;;;;;1.52;1.40;;;;;;;;;;5100331;28;20608;-60
2022/07/09 00:22:27;;;;;;;1.40;1.10;;;;;;;;;;5100759;28;20534;-60
2022/07/09 00:24:54;;;;;;;2.05;1.38;;;;;;;;;;5100752;28;20290;-58
2022/07/09 00:27:22;;;;;;;1.30;1.20;;;;;;;;;;5100136;28;20661;-60
2022/07/09 00:29:51;;;;;;;1.33;1.23;;;;;;;;;;5100315;28;20203;-60
2022/07/09 00:32:19;;;;;;;2.33;1.20;;;;;;;;;;5099811;28;20270;-59
2022/07/09 00:34:46;;;;;;;1.70;1.23;;;;;;;;;;5099740;28;20207;-60
2022/07/09 00:37:14;;;;;;;1.42;1.33;;;;;;;;;;5099250;28;20583;-60
2022/07/09 00:39:42;;;;;;;1.35;1.25;;;;;;;;;;5100481;28;20242;-58
2022/07/09 00:42:11;;;;;;;1.27;1.17;;;;;;;;;;5100004;28;20257;-58
2022/07/09 00:44:38;;;;;;;1.63;1.17;;;;;;;;;;5100122;28;20265;-60
2022/07/09 00:47:08;;;;;;;1.42;1.33;;;;;;;;;;5098663;28;20196;-60
2022/07/09 00:49:37;;;;;;;1.30;1.20;;;;;;;;;;5099537;28;20268;-60
2022/07/09 00:52:06;;;;;;;1.70;1.30;;;;;;;;;;5099903;28;20561;-60
2022/07/09 00:54:36;;;;;;;2.15;1.30;;;;;;;;;;5099750;28;20278;-60
2022/07/09 00:57:05;;;;;;;1.85;1.40;;;;;;;;;;5099590;28;20559;-60
2022/07/09 00:59:33;;;;;;;2.22;1.30;;;;;;;;;;5099861;28;20210;-58
2022/07/09 01:02:01;;;;;;;1.55;1.45;;;;;;;;;;5099630;28;20234;-61
2022/07/09 01:04:30;;;;;;;1.65;1.10;;;;;;;;;;5099762;28;20207;-60
2022/07/09 01:06:58;;;;;;;1.50;1.02;;;;;;;;;;5099421;28;20346;-59
2022/07/09 01:09:26;;;;;;;1.70;1.10;;;;;;;;;;5099773;28;20204;-60
2022/07/09 01:11:54;;;;;;;1.40;1.27;;;;;;;;;;5100036;28;20260;-60
2022/07/09 01:14:22;;;;;;;1.50;1.33;;;;;;;;;;5099480;28;20204;-58
2022/07/09 01:16:58;;;;;;;1.35;1.30;;;;;;;;;;5099146;28;20229;-60
2022/07/09 01:19:25;;;;;;;1.30;1.10;;;;;;;;;;5099759;28;20253;-59
2022/07/09 01:21:55;;;;;;;1.50;1.40;;;;;;;;;;5099369;28;20223;-60
2022/07/09 01:24:22;;;;;;;1.30;1.20;;;;;;;;;;5099228;28;20265;-60
2022/07/09 01:26:50;;;;;;;1.92;1.40;;;;;;;;;;5099569;28;20237;-58
2022/07/09 01:29:17;;;;;;;1.40;1.30;;;;;;;;;;5099192;28;20204;-59
2022/07/09 01:31:45;;;;;;;1.13;1.02;;;;;;;;;;5099526;28;20223;-58
2022/07/09 01:34:13;;;;;;;1.75;1.00;;;;;;;;;;5098972;28;20340;-60
2022/07/09 01:36:40;;;;;;;1.20;1.10;;;;;;;;;;5098875;28;20606;-60
2022/07/09 01:39:09;;;;;;;1.45;1.02;;;;;;;;;;5098938;28;20674;-59
2022/07/09 01:41:36;;;;;;;1.30;1.20;;;;;;;;;;5098821;28;20286;-59
2022/07/09 01:44:04;;;;;;;1.30;1.20;;;;;;;;;;5098939;28;20243;-59
2022/07/09 01:46:32;;;;;;;1.23;1.13;;;;;;;;;;5099284;28;20203;-59
2022/07/09 01:48:59;;;;;;;1.40;1.30;;;;;;;;;;5098866;28;20523;-59
2022/07/09 01:51:27;;;;;;;1.10;1.00;;;;;;;;;;5098658;28;20268;-59
2022/07/09 01:53:54;;;;;;;0.98;0.93;;;;;;;;;;5098558;28;20302;-59
2022/07/09 01:56:24;;;;;;;1.98;1.27;;;;;;;;;;5098951;28;20212;-60
2022/07/09 01:58:52;;;;;;;1.25;1.15;;;;;;;;;;5098811;28;20227;-60
2022/07/09 02:01:20;;;;;;;1.20;1.10;;;;;;;;;;5099025;28;20246;-59
2022/07/09 02:03:47;;;;;;;1.50;1.38;;;;;;;;;;5098566;28;20590;-59
2022/07/09 02:06:15;;;;;;;1.17;1.08;;;;;;;;;;5099119;28;20268;-59
2022/07/09 02:08:43;;;;;;;1.35;1.10;;;;;;;;;;5098220;28;20219;-60
2022/07/09 02:11:10;;;;;;;1.33;1.20;;;;;;;;;;5098515;28;20231;-60
2022/07/09 02:13:39;;;;;;;1.52;1.42;;;;;;;;;;5097625;28;20266;-59
2022/07/09 02:16:08;;;;;;;1.23;1.13;;;;;;;;;;5090059;28;20560;-60
2022/07/09 02:18:35;;;;;;;1.15;1.10;;;;;;;;;;5097971;28;20287;-60
2022/07/09 02:21:04;;;;;;;1.23;1.13;;;;;;;;;;5098491;28;20475;-60
2022/07/09 02:23:32;;;;;;;1.20;1.10;;;;;;;;;;5098088;28;20454;-60
2022/07/09 02:26:00;;;;;;;2.25;1.08;;;;;;;;;;5098759;28;20211;-61
2022/07/09 02:28:27;;;;;;;1.45;1.15;;;;;;;;;;5098670;28;20207;-60
2022/07/09 02:30:57;;;;;;;1.27;1.20;;;;;;;;;;5098329;28;20301;-60
2022/07/09 02:33:26;;;;;;;1.08;0.98;;;;;;;;;;5098496;28;20239;-60
2022/07/09 02:35:53;;;;;;;1.02;1.00;;;;;;;;;;5098220;28;20231;-58
2022/07/09 02:38:21;;;;;;;1.27;1.17;;;;;;;;;;5098354;28;20269;-58
2022/07/09 02:40:49;;;;;;;1.73;1.13;;;;;;;;;;5098244;28;20203;-60
2022/07/09 02:43:17;;;;;;;0.98;0.98;;;;;;;;;;5097841;28;20199;-60
2022/07/09 02:45:44;;;;;;;2.65;1.10;;;;;;;;;;5098228;28;20518;-60
2022/07/09 02:48:13;;;;;;;0.90;0.90;;;;;;;;;;5097910;28;20290;-59
2022/07/09 02:50:40;;;;;;;1.95;0.90;;;;;;;;;;5098043;28;20200;-60
2022/07/09 02:53:08;;;;;;;1.23;1.13;;;;;;;;;;5101555;28;20231;-60
2022/07/09 02:55:35;;;;;;;1.40;1.00;;;;;;;;;;5102463;28;20203;-60
2022/07/09 02:58:03;;;;;;;1.25;1.15;;;;;;;;;;5102340;28;20231;-60
2022/07/09 03:00:30;;;;;;;1.10;1.00;;;;;;;;;;5102165;28;20554;-60
2022/07/09 03:02:58;;;;;;;1.27;1.17;;;;;;;;;;5102319;28;20235;-60
2022/07/09 03:05:27;;;;;;;1.10;1.00;;;;;;;;;;5101768;28;20264;-60
2022/07/09 03:07:54;;;;;;;1.23;1.10;;;;;;;;;;5102198;28;20203;-60
2022/07/09 03:10:22;;;;;;;1.05;1.00;;;;;;;;;;5101709;28;20253;-61
2022/07/09 03:12:49;;;;;;;1.02;1.00;;;;;;;;;;5102523;28;20292;-60
2022/07/09 03:15:17;;;;;;;1.33;1.00;;;;;;;;;;5102548;28;20553;-57
2022/07/09 03:17:45;;;;;;;1.20;1.02;;;;;;;;;;5101873;28;20222;-60
2022/07/09 03:20:13;;;;;;;1.15;1.05;;;;;;;;;;5101865;28;20286;-60
2022/07/09 03:22:42;;;;;;;1.30;1.10;;;;;;;;;;5101607;28;20250;-60
2022/07/09 03:25:10;;;;;;;0.93;0.90;;;;;;;;;;5100951;28;20306;-60
2022/07/09 03:27:38;;;;;;;1.88;1.00;;;;;;;;;;5101738;28;20268;-59
2022/07/09 03:30:06;;;;;;;1.17;1.08;;;;;;;;;;5101497;28;20264;-60
2022/07/09 03:32:33;;;;;;;0.90;0.90;;;;;;;;;;5101334;28;20263;-60
2022/07/09 03:35:01;;;;;;;1.17;1.02;;;;;;;;;;5101341;28;20211;-60
2022/07/09 03:37:28;;;;;;;0.98;0.98;;;;;;;;;;5101479;28;20203;-58
2022/07/09 03:39:57;;;;;;;1.10;1.00;;;;;;;;;;5101703;28;20204;-58
2022/07/09 03:42:27;;;;;;;1.00;0.90;;;;;;;;;;5101890;28;20239;-58
2022/07/09 03:44:54;;;;;;;1.17;1.08;;;;;;;;;;5101289;28;20522;-59
2022/07/09 03:47:22;;;;;;;0.85;0.85;;;;;;;;;;5101276;28;20208;-60
2022/07/09 03:49:49;;;;;;;0.80;0.80;;;;;;;;;;5101302;28;20204;-59
2022/07/09 03:52:17;;;;;;;1.00;1.00;;;;;;;;;;5101149;28;20204;-58
2022/07/09 03:54:44;;;;;;;1.00;0.90;;;;;;;;;;5101275;28;20203;-59
2022/07/09 03:57:13;;;;;;;0.90;0.90;;;;;;;;;;5101332;28;20214;-59
2022/07/09 03:59:40;;;;;;;0.90;0.90;;;;;;;;;;5100304;28;20233;-60
2022/07/09 04:02:08;;;;;;;1.08;1.08;;;;;;;;;;5099869;28;20717;-60
2022/07/09 04:04:36;;;;;;;1.10;1.10;;;;;;;;;;5101271;28;20246;-59
2022/07/09 04:07:03;;;;;;;1.13;1.00;;;;;;;;;;5100974;28;20261;-59
2022/07/09 04:09:30;;;;;;;0.90;0.90;;;;;;;;;;5100922;28;20238;-60
2022/07/09 04:11:58;;;;;;;1.10;1.00;;;;;;;;;;5100991;28;20464;-60
2022/07/09 04:14:27;;;;;;;1.10;1.00;;;;;;;;;;5100509;28;20574;-60
2022/07/09 04:16:54;;;;;;;1.00;1.00;;;;;;;;;;5101096;28;20203;-59
2022/07/09 04:19:22;;;;;;;1.27;1.10;;;;;;;;;;5100684;28;20243;-59
2022/07/09 04:21:49;;;;;;;0.93;0.90;;;;;;;;;;5101296;28;20475;-60
2022/07/09 04:24:17;;;;;;;1.05;1.00;;;;;;;;;;5100575;28;20199;-59
2022/07/09 04:26:44;;;;;;;1.10;1.00;;;;;;;;;;5100160;28;20239;-59
2022/07/09 04:29:12;;;;;;;0.77;0.77;;;;;;;;;;5100216;28;20203;-59
2022/07/09 04:31:41;;;;;;;1.20;1.10;;;;;;;;;;5100318;28;20594;-59
2022/07/09 04:34:09;;;;;;;1.20;1.10;;;;;;;;;;5100346;28;20235;-60
2022/07/09 04:36:36;;;;;;;1.20;1.05;;;;;;;;;;5100263;28;20242;-60
2022/07/09 04:39:04;;;;;;;2.35;0.98;;;;;;;;;;5100232;28;20235;-60
2022/07/09 04:41:32;;;;;;;1.40;1.00;;;;;;;;;;5100132;28;20609;-59
2022/07/09 04:43:59;;;;;;;1.20;1.13;;;;;;;;;;5099864;28;20273;-59
2022/07/09 04:46:30;;;;;;;0.90;0.90;;;;;;;;;;5100147;28;20211;-60
2022/07/09 04:48:59;;;;;;;0.95;0.95;;;;;;;;;;5099849;28;20211;-59
2022/07/09 04:51:26;;;;;;;1.33;0.90;;;;;;;;;;5099561;28;20204;-59
2022/07/09 04:53:54;;;;;;;1.10;0.90;;;;;;;;;;5100080;28;20366;-60
2022/07/09 04:56:22;;;;;;;1.20;1.10;;;;;;;;;;5099877;28;20301;-60
2022/07/09 04:58:52;;;;;;;0.98;0.88;;;;;;;;;;5100007;28;20587;-60
2022/07/09 05:01:20;;;;;;;1.00;0.90;;;;;;;;;;5099996;28;20235;-60
2022/07/09 05:03:47;;;;;;;0.90;0.90;;;;;;;;;;5099973;28;20239;-60
2022/07/09 05:06:17;;;;;;;1.20;1.10;;;;;;;;;;5099306;28;20204;-60
2022/07/09 05:08:44;;;;;;;1.15;1.00;;;;;;;;;;5099837;28;20253;-60
2022/07/09 05:11:12;;;;;;;0.90;0.90;;;;;;;;;;5099624;28;20208;-60
2022/07/09 05:13:40;;;;;;;1.27;1.17;;;;;;;;;;5098904;28;20257;-59
2022/07/09 05:16:08;;;;;;;1.05;1.00;;;;;;;;;;5099227;28;20203;-59
2022/07/09 05:18:36;;;;;;;1.05;0.93;;;;;;;;;;5099284;28;20289;-60
2022/07/09 05:21:03;;;;;;;1.00;0.90;;;;;;;;;;5099646;28;20204;-60
2022/07/09 05:23:33;;;;;;;0.88;0.80;;;;;;;;;;5099236;28;20235;-60
2022/07/09 05:26:00;;;;;;;1.05;1.05;;;;;;;;;;5099386;28;20211;-59
2022/07/09 05:28:28;;;;;;;1.35;1.05;;;;;;;;;;5099023;28;20658;-59
2022/07/09 05:30:56;;;;;;;0.95;0.85;;;;;;;;;;5099376;28;20203;-60
2022/07/09 05:33:23;;;;;;;1.10;1.00;;;;;;;;;;5098776;28;20219;-59
2022/07/09 05:35:51;;;;;;;1.33;1.15;;;;;;;;;;5098970;28;20207;-59
2022/07/09 05:38:18;;;;;;;1.20;0.98;;;;;;;;;;5099636;28;20587;-60
2022/07/09 05:40:47;;;;;;;1.52;1.02;;;;;;;;;;5098802;28;20210;-60
2022/07/09 05:43:15;;;;;;;1.73;1.10;;;;;;;;;;5099209;28;20265;-59
2022/07/09 05:45:42;;;;;;;1.02;1.00;;;;;;;;;;5099140;28;20299;-59
2022/07/09 05:48:10;;;;;;;1.17;1.10;;;;;;;;;;5099010;28;20256;-60
2022/07/09 05:50:37;;;;;;;1.48;0.90;;;;;;;;;;5098107;28;20587;-60
2022/07/09 05:53:05;;;;;;;1.10;1.10;;;;;;;;;;5097587;28;20267;-59
2022/07/09 05:55:32;;;;;;;0.98;0.98;;;;;;;;;;5098427;28;20571;-60
2022/07/09 05:58:01;;;;;;;0.90;0.90;;;;;;;;;;5097728;28;20235;-59
2022/07/09 06:00:29;;;;;;;1.00;1.00;;;;;;;;;;5098007;28;20239;-60
2022/07/09 06:02:56;;;;;;;1.00;1.00;;;;;;;;;;5097656;28;20276;-59
2022/07/09 06:05:24;;;;;;;1.10;1.00;;;;;;;;;;5097797;28;20219;-58
2022/07/09 06:07:51;;;;;;;0.98;0.98;;;;;;;;;;5098104;28;20247;-59
2022/07/09 06:10:19;;;;;;;0.90;0.90;;;;;;;;;;5097724;28;20243;-59
2022/07/09 06:12:46;;;;;;;0.98;0.98;;;;;;;;;;5097654;28;20235;-59
2022/07/09 06:15:16;;;;;;;0.90;0.90;;;;;;;;;;5097509;28;20226;-59
2022/07/09 06:17:44;;;;;;;1.65;1.13;;;;;;;;;;5097772;28;20213;-59
2022/07/09 06:20:11;;;;;;;1.17;1.00;;;;;;;;;;5097255;28;20215;-60
2022/07/09 06:22:39;;;;;;;1.00;0.90;;;;;;;;;;5096474;28;20203;-59
2022/07/09 06:25:08;;;;;;;1.50;1.00;;;;;;;;;;5096852;28;20212;-59
2022/07/09 06:27:36;;;;;;;1.30;1.00;;;;;;;;;;5096365;28;20199;-59
2022/07/09 06:30:04;;;;;;;1.10;1.00;;;;;;;;;;5096531;28;20227;-59
2022/07/09 06:32:33;;;;;;;0.90;0.90;;;;;;;;;;5097074;28;20264;-60
2022/07/09 06:35:00;;;;;;;1.40;1.10;;;;;;;;;;5097078;28;20310;-59
2022/07/09 06:37:28;;;;;;;1.10;1.00;;;;;;;;;;5097057;28;20594;-59
2022/07/09 06:39:57;;;;;;;1.20;1.05;;;;;;;;;;5096890;28;20238;-59
2022/07/09 06:42:25;;;;;;;1.13;1.02;;;;;;;;;;5096190;28;20204;-59
2022/07/09 06:44:52;;;;;;;1.00;1.00;;;;;;;;;;5096149;28;20295;-60
2022/07/09 06:47:20;;;;;;;1.20;1.10;;;;;;;;;;5096057;28;20544;-59
2022/07/09 06:49:49;;;;;;;1.25;0.90;;;;;;;;;;5096419;28;20235;-59
2022/07/09 06:52:16;;;;;;;1.40;1.10;;;;;;;;;;5095129;28;20204;-59
2022/07/09 06:54:44;;;;;;;0.90;0.90;;;;;;;;;;5094908;28;20259;-59
2022/07/09 06:57:13;;;;;;;0.80;0.80;;;;;;;;;;5095266;28;20242;-59
2022/07/09 06:59:41;;;;;;;1.08;1.08;;;;;;;;;;5094669;28;20227;-59
2022/07/09 07:02:10;;;;;;;1.20;1.10;;;;;;;;;;5096557;28;20227;-59
2022/07/09 07:04:37;;;;;;;0.80;0.80;;;;;;;;;;5096623;28;20269;-59
2022/07/09 07:07:07;;;;;;;1.95;1.00;;;;;;;;;;5096051;28;20206;-59
2022/07/09 07:09:34;;;;;;;1.20;1.10;;;;;;;;;;5096121;28;20296;-59
2022/07/09 07:12:02;;;;;;;1.10;0.90;;;;;;;;;;5096599;28;20299;-59
2022/07/09 07:14:30;;;;;;;1.58;1.00;;;;;;;;;;5095613;28;20314;-59
2022/07/09 07:16:57;;;;;;;1.00;1.00;;;;;;;;;;5096123;28;20235;-59
2022/07/09 07:19:25;;;;;;;1.20;1.10;;;;;;;;;;5095905;28;20211;-59
2022/07/09 07:21:52;;;;;;;1.17;1.00;;;;;;;;;;5096133;28;20235;-59
2022/07/09 07:24:21;;;;;;;0.90;0.90;;;;;;;;;;5096224;28;20203;-59
2022/07/09 07:26:49;;;;;;;1.20;1.10;;;;;;;;;;5096044;28;20243;-60
2022/07/09 07:29:16;;;;;;;1.17;0.77;;;;;;;;;;5096123;28;20204;-60
2022/07/09 07:31:44;;;;;;;1.20;1.10;;;;;;;;;;5095434;28;20200;-59
2022/07/09 07:34:11;;;;;;;1.15;1.05;;;;;;;;;;5095557;28;20271;-59
2022/07/09 07:36:39;;;;;;;1.45;1.10;;;;;;;;;;5094837;28;20238;-59
2022/07/09 07:39:06;;;;;;;1.00;0.90;;;;;;;;;;5098426;28;20637;-59
2022/07/09 07:41:36;;;;;;;0.90;0.90;;;;;;;;;;5098555;28;20199;-59
2022/07/09 07:44:03;;;;;;;1.00;1.00;;;;;;;;;;5098632;28;20207;-59
2022/07/09 07:46:31;;;;;;;0.90;0.90;;;;;;;;;;5098895;28;20428;-59
2022/07/09 07:48:58;;;;;;;1.10;1.00;;;;;;;;;;5098627;28;20682;-59
2022/07/09 07:51:26;;;;;;;1.30;1.20;;;;;;;;;;5099541;28;20227;-60
2022/07/09 07:53:53;;;;;;;1.20;1.00;;;;;;;;;;5099993;28;20271;-59
2022/07/09 07:56:20;;;;;;;1.27;1.17;;;;;;;;;;5098792;28;20203;-59
2022/07/09 07:58:49;;;;;;;1.20;1.10;;;;;;;;;;5099360;28;20235;-59
2022/07/09 08:01:18;;;;;;;1.00;1.00;;;;;;;;;;5099993;28;20235;-59
2022/07/09 08:03:46;;;;;;;1.25;1.15;;;;;;;;;;5099009;28;20200;-59
2022/07/09 08:06:13;;;;;;;1.30;1.08;;;;;;;;;;5099692;28;20239;-59
2022/07/09 08:08:41;;;;;;;1.13;1.05;;;;;;;;;;5098977;28;20265;-59
2022/07/09 08:11:08;;;;;;;1.50;1.33;;;;;;;;;;5099595;28;20292;-59
2022/07/09 08:13:36;;;;;;;2.20;1.70;;;;;;;;;;5098883;28;20199;-59
2022/07/09 08:16:05;;;;;;;1.55;1.45;;;;;;;;;;5098581;28;20598;-59
2022/07/09 08:18:33;;;;;;;1.73;1.63;;;;;;;;;;5099597;28;20203;-59
2022/07/09 08:21:01;;;;;;;1.85;1.38;;;;;;;;;;5097805;28;20212;-59
2022/07/09 08:23:28;;;;;;;2.13;1.50;;;;;;;;;;5098369;28;20196;-60
2022/07/09 08:25:56;;;;;;;3.30;1.60;;;;;;;;;;5097834;28;20227;-59
2022/07/09 08:28:26;;;;;;;2.00;1.70;;;;;;;;;;5098578;28;20207;-59
2022/07/09 08:30:54;;;;;;;1.85;1.75;;;;;;;;;;5097668;28;20207;-59
2022/07/09 08:33:23;;;;;;;2.00;1.60;;;;;;;;;;5097935;28;20231;-59
2022/07/09 08:35:51;;;;;;;1.60;1.50;;;;;;;;;;5098624;28;20224;-59
2022/07/09 08:38:18;;;;;;;1.70;1.40;;;;;;;;;;5097474;28;20290;-60
2022/07/09 08:40:46;;;;;;;1.52;1.42;;;;;;;;;;5098439;28;20742;-59
2022/07/09 08:43:14;;;;;;;1.50;1.40;;;;;;;;;;5097453;28;20609;-60
2022/07/09 08:45:44;;;;;;;1.23;1.13;;;;;;;;;;5098093;28;20254;-60
2022/07/09 08:48:11;;;;;;;2.25;2.05;;;;;;;;;;5098251;28;20475;-60
2022/07/09 08:50:41;;;;;;;2.10;1.70;;;;;;;;;;5098272;28;20203;-60
2022/07/09 08:53:09;;;;;;;1.58;1.48;;;;;;;;;;5098313;28;20293;-60
2022/07/09 08:55:39;;;;;;;1.70;1.58;;;;;;;;;;5097690;28;20223;-60
2022/07/09 08:58:06;;;;;;;2.28;1.80;;;;;;;;;;5097476;28;20211;-59
2022/07/09 09:00:34;;;;;;;2.00;1.90;;;;;;;;;;5098317;28;20558;-59
2022/07/09 09:03:02;;;;;;;2.50;1.85;;;;;;;;;;5098164;28;20570;-59
2022/07/09 09:05:30;;;;;;;1.90;1.80;;;;;;;;;;5097905;28;20235;-60
2022/07/09 09:07:58;;;;;;;1.83;1.73;;;;;;;;;;5098163;28;20235;-60
2022/07/09 09:10:27;;;;;;;1.90;1.80;;;;;;;;;;5096932;28;20233;-60
2022/07/09 09:12:58;;;;;;;2.10;1.55;;;;;;;;;;5097680;28;20643;-60
2022/07/09 09:15:25;;;;;;;3.92;1.55;;;;;;;;;;5097789;28;20247;-60
2022/07/09 09:17:53;;;;;;;2.15;1.58;;;;;;;;;;5096822;28;20203;-60
2022/07/09 09:20:21;;;;;;;1.88;1.73;;;;;;;;;;5097472;28;20247;-60
2022/07/09 09:22:49;;;;;;;1.52;1.42;;;;;;;;;;5097473;28;20265;-60
2022/07/09 09:25:19;;;;;;;1.58;1.48;;;;;;;;;;5095970;28;20265;-60
2022/07/09 09:27:55;;;;;;;1.90;1.20;;;;;;;;;;5095834;28;20200;-60
2022/07/09 09:30:23;;;;;;;2.00;1.40;;;;;;;;;;5095631;28;20598;-60
2022/07/09 09:32:58;;;;;;;2.22;1.33;;;;;;;;;;5096152;28;20203;-60
2022/07/09 09:35:26;;;;;;;1.67;1.20;;;;;;;;;;5096643;28;20334;-60
2022/07/09 09:37:54;;;;;;;2.97;1.50;;;;;;;;;;5096666;28;20583;-60
2022/07/09 09:40:23;;;;;;;3.20;1.30;;;;;;;;;;5097003;28;20319;-60
2022/07/09 09:42:52;;;;;;;2.30;1.40;;;;;;;;;;5096994;28;20341;-60
2022/07/09 09:45:20;;;;;;;1.38;1.27;;;;;;;;;;5096947;28;20243;-61
2022/07/09 09:47:48;;;;;;;1.52;1.27;;;;;;;;;;5096739;28;20253;-60
2022/07/09 09:50:18;;;;;;;1.73;1.20;;;;;;;;;;5096460;28;20681;-60
2022/07/09 09:52:47;;;;;;;2.95;1.30;;;;;;;;;;5096842;28;20270;-60
2022/07/09 09:55:15;;;;;;;2.80;1.25;;;;;;;;;;5095714;28;20250;-60
2022/07/09 09:57:44;;;;;;;1.63;1.40;;;;;;;;;;5096408;28;20203;-60
2022/07/09 10:00:13;;;;;;;2.15;1.38;;;;;;;;;;5095487;28;20227;-60
2022/07/09 10:02:43;;;;;;;1.20;1.10;;;;;;;;;;5096530;28;20204;-60
2022/07/09 10:05:11;;;;;;;2.72;1.45;;;;;;;;;;5095165;28;20196;-60
2022/07/09 10:07:39;;;;;;;5.13;1.80;;;;;;;;;;5094490;28;20199;-60
2022/07/09 10:10:07;;;;;;;2.05;1.30;;;;;;;;;;5095970;28;20204;-60
2022/07/09 10:12:35;;;;;;;2.60;1.30;;;;;;;;;;5096463;28;20675;-60
2022/07/09 10:15:09;;;;;;;1.65;1.35;;;;;;;;;;5095410;28;20504;-60
2022/07/09 10:17:41;;;;;;;3.92;1.40;;;;;;;;;;5095410;28;20226;-60
2022/07/09 10:20:11;;;;;;;3.35;1.95;;;;;;;;;;5096288;28;20214;-61
2022/07/09 10:22:40;;;;;;;3.03;2.10;;;;;;;;;;5095263;28;20211;-60
2022/07/09 10:25:08;;;;;;;3.85;1.60;;;;;;;;;;5095224;28;20307;-60
2022/07/09 10:39:58;;;;;;;5.72;1.90;;;;;;;;;;5082988;27;1455996;-59
2022/07/09 10:42:26;;;;;;;3.88;1.90;;;;;;;;;;5110990;28;20230;-59
2022/07/09 10:44:53;;;;;;;1.90;1.80;;;;;;;;;;5110972;28;20225;-59
2022/07/09 10:47:21;;;;;;;3.15;1.70;;;;;;;;;;5110882;28;20211;-60
2022/07/09 10:49:48;;;;;;;2.17;1.90;;;;;;;;;;5109969;28;20267;-59
2022/07/09 10:52:16;;;;;;;2.40;1.85;;;;;;;;;;5111318;28;20203;-59
2022/07/09 10:54:47;;;;;;;2.55;1.83;;;;;;;;;;5110880;28;20349;-59
2022/07/09 10:57:16;;;;;;;2.05;1.85;;;;;;;;;;5110900;28;20508;-59
2022/07/09 10:59:47;;;;;;;2.15;1.63;;;;;;;;;;5111886;28;20226;-59
2022/07/09 11:02:22;;;;;;;3.03;1.83;;;;;;;;;;5111108;28;20225;-58
2022/07/09 11:04:53;;;;;;;1.98;1.73;;;;;;;;;;5111892;28;20576;-59
2022/07/09 11:07:21;;;;;;;2.13;1.52;;;;;;;;;;5112405;28;20582;-59
2022/07/09 11:09:49;;;;;;;1.77;1.67;;;;;;;;;;5111905;28;20195;-58
2022/07/09 11:12:18;;;;;;;2.10;1.60;;;;;;;;;;5110973;28;20238;-58
2022/07/09 11:14:47;;;;;;;1.98;1.75;;;;;;;;;;5109908;28;20203;-59
2022/07/09 11:17:17;;;;;;;2.38;1.60;;;;;;;;;;5111151;28;20596;-58
2022/07/09 11:19:46;;;;;;;2.03;1.83;;;;;;;;;;5111617;28;20214;-59
2022/07/09 11:22:13;;;;;;;2.25;2.10;;;;;;;;;;5111719;28;20203;-59
2022/07/09 11:24:42;;;;;;;1.98;1.85;;;;;;;;;;5111959;28;20261;-59
2022/07/09 11:27:10;;;;;;;2.10;1.70;;;;;;;;;;5111615;28;20295;-59
2022/07/09 11:29:39;;;;;;;1.98;1.75;;;;;;;;;;5112651;28;20328;-59
2022/07/09 11:32:07;;;;;;;2.20;2.00;;;;;;;;;;5113286;28;20207;-59
2022/07/09 11:34:35;;;;;;;1.70;1.60;;;;;;;;;;5112374;28;20210;-60
2022/07/09 11:37:03;;;;;;;2.05;1.50;;;;;;;;;;5111512;28;20230;-59
2022/07/09 11:39:32;;;;;;;1.70;1.58;;;;;;;;;;5106085;28;20243;-59
2022/07/09 11:42:00;;;;;;;1.88;1.63;;;;;;;;;;5098269;28;20196;-59
2022/07/09 11:44:28;;;;;;;2.33;1.50;;;;;;;;;;5098678;28;20846;-59
2022/07/09 11:47:17;;;;;;;1.77;1.50;;;;;;;;;;5097815;28;20204;-59
2022/07/09 11:49:48;;;;;;;1.52;1.42;;;;;;;;;;5097894;28;20235;-58
2022/07/09 11:52:19;;;;;;;2.25;1.80;;;;;;;;;;5098072;28;20215;-58
2022/07/09 11:54:59;;;;;;;1.77;1.67;;;;;;;;;;5087770;28;20211;-59
2022/07/09 11:57:27;;;;;;;1.52;1.40;;;;;;;;;;5077432;28;20196;-58
2022/07/09 11:59:55;;;;;;;1.63;1.52;;;;;;;;;;5078054;28;20216;-60
2022/07/09 12:02:26;;;;;;;1.55;1.45;;;;;;;;;;5077778;28;20204;-58
2022/07/09 12:04:57;;;;;;;1.60;1.50;;;;;;;;;;5086399;28;20227;-58
2022/07/09 12:07:26;;;;;;;1.60;1.50;;;;;;;;;;5098096;28;20230;-58
2022/07/09 12:10:00;;;;;;;1.48;1.38;;;;;;;;;;5098060;28;20302;-61
2022/07/09 12:12:29;;;;;;;1.70;1.60;;;;;;;;;;5097488;28;20447;-58
2022/07/09 12:14:57;;;;;;;2.08;1.58;;;;;;;;;;5086956;28;20197;-59
2022/07/09 12:17:25;;;;;;;1.52;1.35;;;;;;;;;;5077107;28;20259;-59
2022/07/09 12:19:53;;;;;;;1.60;1.50;;;;;;;;;;5077511;28;20262;-58
2022/07/09 12:22:23;;;;;;;1.33;1.23;;;;;;;;;;5077675;28;20204;-58
2022/07/09 12:24:50;;;;;;;1.40;1.30;;;;;;;;;;5080481;28;20208;-59
2022/07/09 12:27:18;;;;;;;1.67;1.58;;;;;;;;;;5077863;28;20208;-58
2022/07/09 12:29:45;;;;;;;1.70;1.60;;;;;;;;;;5077766;28;20255;-58
2022/07/09 12:32:13;;;;;;;1.50;1.40;;;;;;;;;;5077177;28;20257;-59
2022/07/09 12:34:41;;;;;;;1.45;1.35;;;;;;;;;;5083874;28;20230;-59
2022/07/09 12:37:08;;;;;;;1.50;1.40;;;;;;;;;;5097406;28;20474;-59
2022/07/09 12:39:37;;;;;;;1.95;1.50;;;;;;;;;;5097896;28;20385;-59
2022/07/09 12:42:05;;;;;;;1.30;1.20;;;;;;;;;;5097362;28;20203;-59
2022/07/09 12:44:33;;;;;;;1.27;1.17;;;;;;;;;;5097358;28;20249;-59
2022/07/09 12:47:00;;;;;;;1.35;1.20;;;;;;;;;;5097213;28;20577;-59
2022/07/09 12:49:28;;;;;;;1.50;1.35;;;;;;;;;;5097253;28;20259;-59
2022/07/09 12:51:55;;;;;;;1.67;1.30;;;;;;;;;;5095729;28;20265;-59
2022/07/09 12:54:23;;;;;;;1.52;1.42;;;;;;;;;;5093314;28;20240;-58
2022/07/09 12:56:52;;;;;;;1.50;1.40;;;;;;;;;;5077122;28;20209;-59
2022/07/09 12:59:20;;;;;;;1.58;1.30;;;;;;;;;;5076724;28;20201;-59
2022/07/09 13:01:47;;;;;;;1.30;1.20;;;;;;;;;;5076242;28;20235;-59
2022/07/09 13:04:15;;;;;;;1.30;1.20;;;;;;;;;;5079250;28;20570;-59
2022/07/09 13:06:43;;;;;;;1.40;1.30;;;;;;;;;;5097257;28;20230;-59
2022/07/09 13:09:11;;;;;;;1.55;1.45;;;;;;;;;;5096821;28;20227;-59
2022/07/09 13:11:39;;;;;;;1.20;1.20;;;;;;;;;;5096287;28;20265;-59
2022/07/09 13:14:08;;;;;;;1.40;1.30;;;;;;;;;;5094262;28;20196;-59
2022/07/09 13:16:36;;;;;;;2.00;1.40;;;;;;;;;;5075732;28;20212;-59
2022/07/09 13:19:04;;;;;;;1.50;1.40;;;;;;;;;;5076279;28;20196;-59
2022/07/09 13:21:33;;;;;;;1.20;1.10;;;;;;;;;;5076447;28;20664;-59
2022/07/09 13:24:02;;;;;;;1.35;1.25;;;;;;;;;;5076103;28;20318;-59
2022/07/09 13:26:30;;;;;;;1.40;1.30;;;;;;;;;;5096581;28;20271;-59
2022/07/09 13:28:58;;;;;;;1.38;1.27;;;;;;;;;;5095581;28;20231;-59
2022/07/09 13:31:27;;;;;;;1.20;1.20;;;;;;;;;;5096820;28;20212;-59
2022/07/09 13:33:55;;;;;;;1.20;1.10;;;;;;;;;;5096429;28;20869;-59
2022/07/09 13:36:22;;;;;;;1.10;1.10;;;;;;;;;;5075524;28;20604;-59
2022/07/09 13:38:50;;;;;;;1.00;1.00;;;;;;;;;;5076321;28;20236;-59
2022/07/09 13:41:18;;;;;;;1.35;1.25;;;;;;;;;;5076062;28;20283;-59
2022/07/09 13:43:46;;;;;;;1.40;1.15;;;;;;;;;;5076536;28;20271;-59
2022/07/09 13:46:15;;;;;;;1.30;1.20;;;;;;;;;;5093245;28;20218;-58
2022/07/09 13:48:44;;;;;;;1.40;1.30;;;;;;;;;;5096225;28;20595;-59
2022/07/09 13:51:11;;;;;;;1.10;1.10;;;;;;;;;;5096080;28;20273;-59
2022/07/09 13:53:39;;;;;;;1.10;1.10;;;;;;;;;;5095301;28;20252;-59
2022/07/09 13:56:06;;;;;;;1.40;1.30;;;;;;;;;;5078361;28;20604;-59
2022/07/09 13:58:34;;;;;;;0.98;0.98;;;;;;;;;;5075020;28;20224;-59
2022/07/09 14:01:02;;;;;;;1.10;1.10;;;;;;;;;;5074379;28;20236;-59
2022/07/09 14:03:29;;;;;;;1.00;1.00;;;;;;;;;;5074328;28;20589;-59
2022/07/09 14:05:58;;;;;;;1.30;1.20;;;;;;;;;;5090363;28;20762;-59
2022/07/09 14:08:27;;;;;;;1.20;1.10;;;;;;;;;;5095875;28;20561;-60
2022/07/09 14:10:57;;;;;;;1.15;1.05;;;;;;;;;;5095506;28;20207;-59
2022/07/09 14:13:26;;;;;;;1.70;1.60;;;;;;;;;;5095076;28;20268;-60
2022/07/09 14:15:55;;;;;;;1.60;1.50;;;;;;;;;;5079855;28;20292;-59
2022/07/09 14:18:22;;;;;;;1.30;1.20;;;;;;;;;;5075209;28;20204;-59
2022/07/09 14:20:50;;;;;;;1.42;1.33;;;;;;;;;;5074616;28;20505;-59
2022/07/09 14:23:19;;;;;;;1.40;1.23;;;;;;;;;;5074803;28;20212;-59
2022/07/09 14:25:46;;;;;;;1.52;1.20;;;;;;;;;;5088235;28;20237;-59
2022/07/09 14:28:14;;;;;;;1.40;1.30;;;;;;;;;;5095455;28;20537;-59
2022/07/09 14:30:42;;;;;;;1.30;1.20;;;;;;;;;;5095369;28;20226;-59
2022/07/09 14:33:09;;;;;;;1.30;1.20;;;;;;;;;;5094601;28;20239;-59
2022/07/09 14:35:36;;;;;;;1.23;1.10;;;;;;;;;;5081319;28;20229;-59
2022/07/09 14:38:04;;;;;;;1.30;1.20;;;;;;;;;;5073589;28;20236;-59
2022/07/09 14:40:33;;;;;;;1.48;1.38;;;;;;;;;;5073787;28;20247;-59
2022/07/09 14:43:01;;;;;;;1.20;1.20;;;;;;;;;;5073567;28;20215;-59
2022/07/09 14:45:28;;;;;;;1.50;1.40;;;;;;;;;;5083920;28;20199;-59
2022/07/09 14:47:56;;;;;;;1.30;1.20;;;;;;;;;;5095093;28;20265;-59
2022/07/09 14:50:23;;;;;;;1.50;1.40;;;;;;;;;;5094403;28;20317;-59
2022/07/09 14:52:51;;;;;;;1.33;1.23;;;;;;;;;;5094078;28;20282;-59
2022/07/09 14:55:19;;;;;;;1.73;1.27;;;;;;;;;;5084773;28;20192;-59
2022/07/09 14:57:48;;;;;;;1.20;1.10;;;;;;;;;;5073605;28;20205;-59
2022/07/09 15:00:16;;;;;;;1.50;1.40;;;;;;;;;;5074464;28;20196;-59